sensor_id;sensor_type;location;lat;lon;timestamp;P1;durP1;ratioP1;P2;durP2;ratioP2
76576;SDS011;65441;44.748;37.600;2023-02-23T00:01:28;4.32;;;1.38;;
76576;SDS011;65441;44.748;37.600;2023-02-23T00:03:58;4.95;;;1.55;;
76576;SDS011;65441;44.748;37.600;2023-02-23T00:09:19;6.03;;;1.85;;
76576;SDS011;65441;44.748;37.600;2023-02-23T00:11:54;5.60;;;1.92;;
76576;SDS011;65441;44.748;37.600;2023-02-23T00:14:26;5.38;;;1.77;;
76576;SDS011;65441;44.748;37.600;2023-02-23T00:16:58;4.78;;;1.58;;
76576;SDS011;65441;44.748;37.600;2023-02-23T00:19:33;5.00;;;1.50;;
76576;SDS011;65441;44.748;37.600;2023-02-23T00:22:04;3.83;;;1.30;;
76576;SDS011;65441;44.748;37.600;2023-02-23T00:24:34;4.68;;;1.70;;
76576;SDS011;65441;44.748;37.600;2023-02-23T00:27:08;5.65;;;1.98;;
76576;SDS011;65441;44.748;37.600;2023-02-23T00:29:45;8.15;;;2.30;;
76576;SDS011;65441;44.748;37.600;2023-02-23T00:32:16;6.47;;;2.38;;
76576;SDS011;65441;44.748;37.600;2023-02-23T00:34:46;8.55;;;2.95;;
76576;SDS011;65441;44.748;37.600;2023-02-23T00:37:18;9.90;;;3.42;;
76576;SDS011;65441;44.748;37.600;2023-02-23T00:39:53;14.55;;;4.22;;
76576;SDS011;65441;44.748;37.600;2023-02-23T00:42:23;17.13;;;5.70;;
76576;SDS011;65441;44.748;37.600;2023-02-23T00:45:01;6.82;;;2.63;;
76576;SDS011;65441;44.748;37.600;2023-02-23T00:47:36;7.50;;;1.90;;
76576;SDS011;65441;44.748;37.600;2023-02-23T00:50:09;7.80;;;2.00;;
76576;SDS011;65441;44.748;37.600;2023-02-23T00:52:41;6.00;;;1.73;;
76576;SDS011;65441;44.748;37.600;2023-02-23T00:55:12;9.13;;;3.50;;
76576;SDS011;65441;44.748;37.600;2023-02-23T00:57:46;10.98;;;3.85;;
76576;SDS011;65441;44.748;37.600;2023-02-23T01:00:18;16.25;;;5.95;;
76576;SDS011;65441;44.748;37.600;2023-02-23T01:02:48;18.40;;;6.13;;
76576;SDS011;65441;44.748;37.600;2023-02-23T01:05:20;42.63;;;13.75;;
76576;SDS011;65441;44.748;37.600;2023-02-23T01:07:53;40.67;;;13.60;;
76576;SDS011;65441;44.748;37.600;2023-02-23T01:10:25;20.70;;;7.07;;
76576;SDS011;65441;44.748;37.600;2023-02-23T01:12:55;13.57;;;4.53;;
76576;SDS011;65441;44.748;37.600;2023-02-23T01:15:24;6.72;;;1.92;;
76576;SDS011;65441;44.748;37.600;2023-02-23T01:17:55;6.10;;;2.20;;
76576;SDS011;65441;44.748;37.600;2023-02-23T01:20:26;8.77;;;3.30;;
76576;SDS011;65441;44.748;37.600;2023-02-23T01:22:56;6.80;;;2.58;;
76576;SDS011;65441;44.748;37.600;2023-02-23T01:25:29;6.65;;;2.05;;
76576;SDS011;65441;44.748;37.600;2023-02-23T01:28:03;6.70;;;2.28;;
76576;SDS011;65441;44.748;37.600;2023-02-23T01:30:37;5.75;;;1.77;;
76576;SDS011;65441;44.748;37.600;2023-02-23T01:33:07;7.80;;;1.90;;
76576;SDS011;65441;44.748;37.600;2023-02-23T01:35:38;8.18;;;2.22;;
76576;SDS011;65441;44.748;37.600;2023-02-23T01:38:09;6.55;;;2.13;;
76576;SDS011;65441;44.748;37.600;2023-02-23T01:40:44;6.22;;;1.98;;
76576;SDS011;65441;44.748;37.600;2023-02-23T01:43:13;6.85;;;1.98;;
76576;SDS011;65441;44.748;37.600;2023-02-23T01:45:46;6.65;;;1.95;;
76576;SDS011;65441;44.748;37.600;2023-02-23T01:48:21;5.80;;;1.80;;
76576;SDS011;65441;44.748;37.600;2023-02-23T01:50:58;7.03;;;1.90;;
76576;SDS011;65441;44.748;37.600;2023-02-23T01:53:32;6.10;;;1.80;;
76576;SDS011;65441;44.748;37.600;2023-02-23T01:56:07;6.75;;;2.30;;
76576;SDS011;65441;44.748;37.600;2023-02-23T01:58:46;7.18;;;2.50;;
76576;SDS011;65441;44.748;37.600;2023-02-23T02:01:21;11.52;;;3.08;;
76576;SDS011;65441;44.748;37.600;2023-02-23T02:03:56;8.00;;;2.78;;
76576;SDS011;65441;44.748;37.600;2023-02-23T02:06:33;6.85;;;2.50;;
76576;SDS011;65441;44.748;37.600;2023-02-23T02:09:07;8.07;;;2.80;;
76576;SDS011;65441;44.748;37.600;2023-02-23T02:11:44;6.75;;;2.35;;
76576;SDS011;65441;44.748;37.600;2023-02-23T02:14:25;5.47;;;2.15;;
76576;SDS011;65441;44.748;37.600;2023-02-23T02:17:03;7.18;;;2.60;;
76576;SDS011;65441;44.748;37.600;2023-02-23T02:23:03;7.15;;;2.33;;
76576;SDS011;65441;44.748;37.600;2023-02-23T02:26:10;4.90;;;1.70;;
76576;SDS011;65441;44.748;37.600;2023-02-23T02:29:11;5.55;;;2.00;;
76576;SDS011;65441;44.748;37.600;2023-02-23T02:32:25;5.53;;;1.92;;
76576;SDS011;65441;44.748;37.600;2023-02-23T02:38:37;4.70;;;1.48;;
76576;SDS011;65441;44.748;37.600;2023-02-23T02:41:21;4.80;;;1.50;;
76576;SDS011;65441;44.748;37.600;2023-02-23T02:44:01;5.05;;;1.70;;
76576;SDS011;65441;44.748;37.600;2023-02-23T02:46:39;4.97;;;1.58;;
76576;SDS011;65441;44.748;37.600;2023-02-23T02:49:18;5.15;;;1.92;;
76576;SDS011;65441;44.748;37.600;2023-02-23T02:51:57;7.30;;;2.33;;
76576;SDS011;65441;44.748;37.600;2023-02-23T02:54:38;6.32;;;2.30;;
76576;SDS011;65441;44.748;37.600;2023-02-23T02:57:13;7.78;;;2.50;;
76576;SDS011;65441;44.748;37.600;2023-02-23T02:59:48;7.63;;;2.85;;
76576;SDS011;65441;44.748;37.600;2023-02-23T03:02:37;8.32;;;3.10;;
76576;SDS011;65441;44.748;37.600;2023-02-23T03:05:27;10.82;;;3.10;;
76576;SDS011;65441;44.748;37.600;2023-02-23T03:11:08;8.27;;;3.00;;
76576;SDS011;65441;44.748;37.600;2023-02-23T03:14:01;6.93;;;2.67;;
76576;SDS011;65441;44.748;37.600;2023-02-23T03:17:04;10.82;;;3.70;;
76576;SDS011;65441;44.748;37.600;2023-02-23T03:19:59;11.60;;;3.58;;
76576;SDS011;65441;44.748;37.600;2023-02-23T03:22:52;9.85;;;3.53;;
76576;SDS011;65441;44.748;37.600;2023-02-23T03:25:51;7.90;;;3.38;;
76576;SDS011;65441;44.748;37.600;2023-02-23T03:28:47;11.40;;;3.80;;
76576;SDS011;65441;44.748;37.600;2023-02-23T03:31:47;11.02;;;3.38;;
76576;SDS011;65441;44.748;37.600;2023-02-23T03:34:41;9.98;;;3.80;;
76576;SDS011;65441;44.748;37.600;2023-02-23T03:37:38;7.15;;;2.88;;
76576;SDS011;65441;44.748;37.600;2023-02-23T03:40:30;9.27;;;3.22;;
76576;SDS011;65441;44.748;37.600;2023-02-23T03:43:25;8.48;;;3.08;;
76576;SDS011;65441;44.748;37.600;2023-02-23T03:46:19;11.98;;;3.45;;
76576;SDS011;65441;44.748;37.600;2023-02-23T03:49:21;8.35;;;2.90;;
76576;SDS011;65441;44.748;37.600;2023-02-23T03:52:16;7.05;;;2.50;;
76576;SDS011;65441;44.748;37.600;2023-02-23T03:55:08;10.02;;;3.20;;
76576;SDS011;65441;44.748;37.600;2023-02-23T03:58:03;8.60;;;2.83;;
76576;SDS011;65441;44.748;37.600;2023-02-23T04:00:57;12.70;;;3.65;;
76576;SDS011;65441;44.748;37.600;2023-02-23T04:03:51;11.73;;;3.25;;
76576;SDS011;65441;44.748;37.600;2023-02-23T04:06:43;8.73;;;3.17;;
76576;SDS011;65441;44.748;37.600;2023-02-23T04:09:32;8.90;;;3.15;;
76576;SDS011;65441;44.748;37.600;2023-02-23T04:12:25;5.95;;;2.33;;
76576;SDS011;65441;44.748;37.600;2023-02-23T04:15:22;9.68;;;3.22;;
76576;SDS011;65441;44.748;37.600;2023-02-23T04:17:55;10.55;;;2.97;;
76576;SDS011;65441;44.748;37.600;2023-02-23T04:20:31;8.38;;;2.97;;
76576;SDS011;65441;44.748;37.600;2023-02-23T04:23:05;9.05;;;2.97;;
76576;SDS011;65441;44.748;37.600;2023-02-23T04:28:11;10.45;;;3.30;;
76576;SDS011;65441;44.748;37.600;2023-02-23T04:30:42;9.00;;;2.83;;
76576;SDS011;65441;44.748;37.600;2023-02-23T04:33:17;7.00;;;2.50;;
76576;SDS011;65441;44.748;37.600;2023-02-23T04:35:53;10.50;;;3.00;;
76576;SDS011;65441;44.748;37.600;2023-02-23T04:38:27;9.52;;;3.50;;
76576;SDS011;65441;44.748;37.600;2023-02-23T04:41:01;12.82;;;3.47;;
76576;SDS011;65441;44.748;37.600;2023-02-23T04:43:34;10.30;;;3.30;;
76576;SDS011;65441;44.748;37.600;2023-02-23T04:46:07;10.32;;;3.30;;
76576;SDS011;65441;44.748;37.600;2023-02-23T04:48:45;11.45;;;3.17;;
76576;SDS011;65441;44.748;37.600;2023-02-23T04:51:28;7.60;;;2.53;;
76576;SDS011;65441;44.748;37.600;2023-02-23T04:54:04;10.00;;;3.00;;
76576;SDS011;65441;44.748;37.600;2023-02-23T04:56:39;9.80;;;3.15;;
76576;SDS011;65441;44.748;37.600;2023-02-23T04:59:12;11.43;;;3.65;;
76576;SDS011;65441;44.748;37.600;2023-02-23T05:01:46;8.90;;;3.22;;
76576;SDS011;65441;44.748;37.600;2023-02-23T05:04:18;5.22;;;2.13;;
76576;SDS011;65441;44.748;37.600;2023-02-23T05:06:51;9.35;;;2.78;;
76576;SDS011;65441;44.748;37.600;2023-02-23T05:09:26;9.32;;;3.35;;
76576;SDS011;65441;44.748;37.600;2023-02-23T05:11:59;13.40;;;5.32;;
76576;SDS011;65441;44.748;37.600;2023-02-23T05:14:28;11.45;;;4.25;;
76576;SDS011;65441;44.748;37.600;2023-02-23T05:16:59;11.23;;;3.88;;
76576;SDS011;65441;44.748;37.600;2023-02-23T05:19:35;11.40;;;3.78;;
76576;SDS011;65441;44.748;37.600;2023-02-23T05:22:10;10.45;;;3.33;;
76576;SDS011;65441;44.748;37.600;2023-02-23T05:24:40;12.32;;;4.25;;
76576;SDS011;65441;44.748;37.600;2023-02-23T05:27:12;11.30;;;3.45;;
76576;SDS011;65441;44.748;37.600;2023-02-23T05:29:45;9.95;;;3.58;;
76576;SDS011;65441;44.748;37.600;2023-02-23T05:32:16;14.25;;;4.50;;
76576;SDS011;65441;44.748;37.600;2023-02-23T05:34:50;11.70;;;4.00;;
76576;SDS011;65441;44.748;37.600;2023-02-23T05:37:20;10.95;;;3.47;;
76576;SDS011;65441;44.748;37.600;2023-02-23T05:39:51;14.00;;;4.80;;
76576;SDS011;65441;44.748;37.600;2023-02-23T05:42:21;12.23;;;3.47;;
76576;SDS011;65441;44.748;37.600;2023-02-23T05:44:50;10.07;;;3.55;;
76576;SDS011;65441;44.748;37.600;2023-02-23T05:47:21;17.70;;;4.35;;
76576;SDS011;65441;44.748;37.600;2023-02-23T05:49:50;10.57;;;3.97;;
76576;SDS011;65441;44.748;37.600;2023-02-23T05:52:21;10.52;;;3.80;;
76576;SDS011;65441;44.748;37.600;2023-02-23T05:54:50;10.43;;;4.15;;
76576;SDS011;65441;44.748;37.600;2023-02-23T05:57:21;12.80;;;4.78;;
76576;SDS011;65441;44.748;37.600;2023-02-23T05:59:51;9.85;;;3.45;;
76576;SDS011;65441;44.748;37.600;2023-02-23T06:02:22;9.23;;;4.20;;
76576;SDS011;65441;44.748;37.600;2023-02-23T06:04:51;9.32;;;3.22;;
76576;SDS011;65441;44.748;37.600;2023-02-23T06:07:23;12.23;;;4.30;;
76576;SDS011;65441;44.748;37.600;2023-02-23T06:09:53;11.70;;;4.47;;
76576;SDS011;65441;44.748;37.600;2023-02-23T06:12:21;12.68;;;4.65;;
76576;SDS011;65441;44.748;37.600;2023-02-23T06:14:52;13.18;;;4.38;;
76576;SDS011;65441;44.748;37.600;2023-02-23T06:17:22;12.43;;;4.72;;
76576;SDS011;65441;44.748;37.600;2023-02-23T06:19:51;11.30;;;4.13;;
76576;SDS011;65441;44.748;37.600;2023-02-23T06:22:22;9.60;;;3.63;;
76576;SDS011;65441;44.748;37.600;2023-02-23T06:24:57;10.00;;;3.42;;
76576;SDS011;65441;44.748;37.600;2023-02-23T06:30:02;10.20;;;3.97;;
76576;SDS011;65441;44.748;37.600;2023-02-23T06:32:33;12.60;;;3.92;;
76576;SDS011;65441;44.748;37.600;2023-02-23T06:35:09;13.75;;;5.07;;
76576;SDS011;65441;44.748;37.600;2023-02-23T06:37:42;16.25;;;5.65;;
76576;SDS011;65441;44.748;37.600;2023-02-23T06:40:15;15.00;;;5.43;;
76576;SDS011;65441;44.748;37.600;2023-02-23T06:42:44;14.20;;;5.03;;
76576;SDS011;65441;44.748;37.600;2023-02-23T06:45:19;14.05;;;5.43;;
76576;SDS011;65441;44.748;37.600;2023-02-23T06:47:54;14.27;;;5.45;;
76576;SDS011;65441;44.748;37.600;2023-02-23T06:50:24;17.65;;;6.18;;
76576;SDS011;65441;44.748;37.600;2023-02-23T06:52:56;16.23;;;5.82;;
76576;SDS011;65441;44.748;37.600;2023-02-23T06:55:25;18.70;;;6.35;;
76576;SDS011;65441;44.748;37.600;2023-02-23T06:57:59;13.60;;;4.78;;
76576;SDS011;65441;44.748;37.600;2023-02-23T07:00:33;13.65;;;5.53;;
76576;SDS011;65441;44.748;37.600;2023-02-23T07:03:11;14.50;;;5.55;;
76576;SDS011;65441;44.748;37.600;2023-02-23T07:05:40;17.33;;;5.10;;
76576;SDS011;65441;44.748;37.600;2023-02-23T07:08:12;17.08;;;6.78;;
76576;SDS011;65441;44.748;37.600;2023-02-23T07:10:47;23.48;;;8.15;;
76576;SDS011;65441;44.748;37.600;2023-02-23T07:13:18;14.40;;;5.35;;
76576;SDS011;65441;44.748;37.600;2023-02-23T07:15:55;16.88;;;6.38;;
76576;SDS011;65441;44.748;37.600;2023-02-23T07:18:26;15.45;;;5.72;;
76576;SDS011;65441;44.748;37.600;2023-02-23T07:23:34;17.70;;;5.75;;
76576;SDS011;65441;44.748;37.600;2023-02-23T07:26:09;17.13;;;5.93;;
76576;SDS011;65441;44.748;37.600;2023-02-23T07:28:43;17.52;;;5.60;;
76576;SDS011;65441;44.748;37.600;2023-02-23T07:33:49;13.32;;;4.25;;
76576;SDS011;65441;44.748;37.600;2023-02-23T07:36:21;13.85;;;5.15;;
76576;SDS011;65441;44.748;37.600;2023-02-23T07:38:57;14.18;;;5.50;;
76576;SDS011;65441;44.748;37.600;2023-02-23T07:41:30;14.90;;;6.07;;
76576;SDS011;65441;44.748;37.600;2023-02-23T07:44:04;15.77;;;6.05;;
76576;SDS011;65441;44.748;37.600;2023-02-23T07:46:35;13.43;;;5.47;;
76576;SDS011;65441;44.748;37.600;2023-02-23T07:49:04;15.60;;;5.75;;
76576;SDS011;65441;44.748;37.600;2023-02-23T07:51:35;18.58;;;6.07;;
76576;SDS011;65441;44.748;37.600;2023-02-23T07:54:08;16.17;;;5.85;;
76576;SDS011;65441;44.748;37.600;2023-02-23T07:56:42;15.02;;;6.20;;
76576;SDS011;65441;44.748;37.600;2023-02-23T07:59:11;17.60;;;6.53;;
76576;SDS011;65441;44.748;37.600;2023-02-23T08:01:44;16.77;;;6.18;;
76576;SDS011;65441;44.748;37.600;2023-02-23T08:04:17;16.08;;;5.72;;
76576;SDS011;65441;44.748;37.600;2023-02-23T08:06:47;14.73;;;5.35;;
76576;SDS011;65441;44.748;37.600;2023-02-23T08:09:19;12.38;;;5.00;;
76576;SDS011;65441;44.748;37.600;2023-02-23T08:11:50;14.38;;;4.70;;
76576;SDS011;65441;44.748;37.600;2023-02-23T08:14:23;12.32;;;5.07;;
76576;SDS011;65441;44.748;37.600;2023-02-23T08:16:54;11.98;;;4.63;;
76576;SDS011;65441;44.748;37.600;2023-02-23T08:19:23;12.75;;;5.13;;
76576;SDS011;65441;44.748;37.600;2023-02-23T08:21:54;14.25;;;4.82;;
76576;SDS011;65441;44.748;37.600;2023-02-23T08:24:30;12.93;;;4.60;;
76576;SDS011;65441;44.748;37.600;2023-02-23T08:27:03;17.05;;;5.32;;
76576;SDS011;65441;44.748;37.600;2023-02-23T08:29:33;15.43;;;4.90;;
76576;SDS011;65441;44.748;37.600;2023-02-23T08:32:05;11.48;;;4.18;;
76576;SDS011;65441;44.748;37.600;2023-02-23T08:34:40;13.48;;;4.60;;
76576;SDS011;65441;44.748;37.600;2023-02-23T08:37:13;12.30;;;4.45;;
76576;SDS011;65441;44.748;37.600;2023-02-23T08:39:46;11.27;;;4.40;;
76576;SDS011;65441;44.748;37.600;2023-02-23T08:42:20;11.05;;;4.22;;
76576;SDS011;65441;44.748;37.600;2023-02-23T08:44:56;15.82;;;4.75;;
76576;SDS011;65441;44.748;37.600;2023-02-23T08:47:27;13.43;;;4.25;;
76576;SDS011;65441;44.748;37.600;2023-02-23T08:49:56;11.63;;;4.03;;
76576;SDS011;65441;44.748;37.600;2023-02-23T08:52:30;15.25;;;4.53;;
76576;SDS011;65441;44.748;37.600;2023-02-23T08:55:03;8.80;;;3.28;;
76576;SDS011;65441;44.748;37.600;2023-02-23T09:00:08;9.45;;;3.28;;
76576;SDS011;65441;44.748;37.600;2023-02-23T09:02:45;14.65;;;4.10;;
76576;SDS011;65441;44.748;37.600;2023-02-23T09:05:17;11.88;;;4.60;;
76576;SDS011;65441;44.748;37.600;2023-02-23T09:08:02;10.65;;;4.32;;
76576;SDS011;65441;44.748;37.600;2023-02-23T09:10:44;10.52;;;3.75;;
76576;SDS011;65441;44.748;37.600;2023-02-23T09:13:15;8.35;;;3.35;;
76576;SDS011;65441;44.748;37.600;2023-02-23T09:15:50;13.52;;;4.70;;
76576;SDS011;65441;44.748;37.600;2023-02-23T09:18:25;11.32;;;4.05;;
76576;SDS011;65441;44.748;37.600;2023-02-23T09:21:03;12.30;;;4.38;;
76576;SDS011;65441;44.748;37.600;2023-02-23T09:23:37;15.70;;;5.15;;
76576;SDS011;65441;44.748;37.600;2023-02-23T09:26:09;13.23;;;4.63;;
76576;SDS011;65441;44.748;37.600;2023-02-23T09:28:38;13.15;;;4.43;;
76576;SDS011;65441;44.748;37.600;2023-02-23T09:31:11;12.18;;;4.28;;
76576;SDS011;65441;44.748;37.600;2023-02-23T09:33:42;10.63;;;4.03;;
76576;SDS011;65441;44.748;37.600;2023-02-23T09:36:18;13.98;;;4.35;;
76576;SDS011;65441;44.748;37.600;2023-02-23T09:38:52;12.55;;;4.55;;
76576;SDS011;65441;44.748;37.600;2023-02-23T09:44:25;11.45;;;4.45;;
76576;SDS011;65441;44.748;37.600;2023-02-23T09:47:09;13.52;;;4.35;;
76576;SDS011;65441;44.748;37.600;2023-02-23T09:49:46;12.20;;;4.47;;
76576;SDS011;65441;44.748;37.600;2023-02-23T09:52:18;13.50;;;4.10;;
76576;SDS011;65441;44.748;37.600;2023-02-23T09:54:53;11.93;;;4.22;;
76576;SDS011;65441;44.748;37.600;2023-02-23T09:57:24;14.45;;;4.90;;
76576;SDS011;65441;44.748;37.600;2023-02-23T10:00:00;14.80;;;4.93;;
76576;SDS011;65441;44.748;37.600;2023-02-23T10:02:44;17.85;;;5.10;;
76576;SDS011;65441;44.748;37.600;2023-02-23T10:05:38;12.32;;;4.30;;
76576;SDS011;65441;44.748;37.600;2023-02-23T10:08:31;15.27;;;4.43;;
76576;SDS011;65441;44.748;37.600;2023-02-23T10:11:18;11.90;;;3.88;;
76576;SDS011;65441;44.748;37.600;2023-02-23T10:14:06;12.07;;;4.28;;
76576;SDS011;65441;44.748;37.600;2023-02-23T10:16:50;11.45;;;4.50;;
76576;SDS011;65441;44.748;37.600;2023-02-23T10:19:38;12.45;;;4.45;;
76576;SDS011;65441;44.748;37.600;2023-02-23T10:22:13;14.63;;;4.28;;
76576;SDS011;65441;44.748;37.600;2023-02-23T10:24:44;11.70;;;4.13;;
76576;SDS011;65441;44.748;37.600;2023-02-23T10:27:20;9.85;;;3.72;;
76576;SDS011;65441;44.748;37.600;2023-02-23T10:29:58;11.85;;;4.53;;
76576;SDS011;65441;44.748;37.600;2023-02-23T10:32:34;13.60;;;4.55;;
76576;SDS011;65441;44.748;37.600;2023-02-23T10:38:13;12.48;;;4.90;;
76576;SDS011;65441;44.748;37.600;2023-02-23T10:40:54;15.75;;;5.03;;
76576;SDS011;65441;44.748;37.600;2023-02-23T10:43:25;14.23;;;4.93;;
76576;SDS011;65441;44.748;37.600;2023-02-23T10:45:58;13.75;;;4.47;;
76576;SDS011;65441;44.748;37.600;2023-02-23T10:48:34;10.23;;;3.83;;
76576;SDS011;65441;44.748;37.600;2023-02-23T10:51:11;10.60;;;4.10;;
76576;SDS011;65441;44.748;37.600;2023-02-23T10:53:48;12.25;;;4.65;;
76576;SDS011;65441;44.748;37.600;2023-02-23T10:56:19;11.20;;;4.22;;
76576;SDS011;65441;44.748;37.600;2023-02-23T10:58:55;13.35;;;4.30;;
76576;SDS011;65441;44.748;37.600;2023-02-23T11:01:40;9.60;;;4.00;;
76576;SDS011;65441;44.748;37.600;2023-02-23T11:04:16;15.20;;;4.82;;
76576;SDS011;65441;44.748;37.600;2023-02-23T11:06:53;13.23;;;4.65;;
76576;SDS011;65441;44.748;37.600;2023-02-23T11:09:37;11.70;;;4.18;;
76576;SDS011;65441;44.748;37.600;2023-02-23T11:12:16;10.50;;;4.07;;
76576;SDS011;65441;44.748;37.600;2023-02-23T11:14:47;13.52;;;4.00;;
76576;SDS011;65441;44.748;37.600;2023-02-23T11:17:26;11.88;;;5.10;;
76576;SDS011;65441;44.748;37.600;2023-02-23T11:20:00;12.18;;;4.65;;
76576;SDS011;65441;44.748;37.600;2023-02-23T11:22:35;13.63;;;4.82;;
76576;SDS011;65441;44.748;37.600;2023-02-23T11:25:14;12.43;;;4.18;;
76576;SDS011;65441;44.748;37.600;2023-02-23T11:27:48;14.85;;;4.47;;
76576;SDS011;65441;44.748;37.600;2023-02-23T11:30:22;14.30;;;4.82;;
76576;SDS011;65441;44.748;37.600;2023-02-23T11:32:58;13.00;;;4.57;;
76576;SDS011;65441;44.748;37.600;2023-02-23T11:35:36;12.63;;;4.45;;
76576;SDS011;65441;44.748;37.600;2023-02-23T11:38:14;13.90;;;4.88;;
76576;SDS011;65441;44.748;37.600;2023-02-23T11:40:59;10.85;;;4.07;;
76576;SDS011;65441;44.748;37.600;2023-02-23T11:43:46;14.63;;;4.97;;
76576;SDS011;65441;44.748;37.600;2023-02-23T11:46:20;12.50;;;4.85;;
76576;SDS011;65441;44.748;37.600;2023-02-23T11:48:55;13.02;;;4.45;;
76576;SDS011;65441;44.748;37.600;2023-02-23T11:51:28;9.48;;;3.63;;
76576;SDS011;65441;44.748;37.600;2023-02-23T11:53:59;11.88;;;4.95;;
76576;SDS011;65441;44.748;37.600;2023-02-23T11:56:29;12.65;;;4.35;;
76576;SDS011;65441;44.748;37.600;2023-02-23T11:59:04;10.98;;;4.03;;
76576;SDS011;65441;44.748;37.600;2023-02-23T12:01:39;9.30;;;3.90;;
76576;SDS011;65441;44.748;37.600;2023-02-23T12:04:24;12.10;;;4.45;;
76576;SDS011;65441;44.748;37.600;2023-02-23T12:07:17;12.68;;;4.85;;
76576;SDS011;65441;44.748;37.600;2023-02-23T12:10:02;11.63;;;4.07;;
76576;SDS011;65441;44.748;37.600;2023-02-23T12:12:41;11.52;;;4.55;;
76576;SDS011;65441;44.748;37.600;2023-02-23T12:15:19;12.40;;;4.22;;
76576;SDS011;65441;44.748;37.600;2023-02-23T12:17:53;11.50;;;4.57;;
76576;SDS011;65441;44.748;37.600;2023-02-23T12:20:27;19.33;;;5.57;;
76576;SDS011;65441;44.748;37.600;2023-02-23T12:25:35;13.57;;;4.28;;
76576;SDS011;65441;44.748;37.600;2023-02-23T12:28:09;9.00;;;3.33;;
76576;SDS011;65441;44.748;37.600;2023-02-23T12:30:47;10.48;;;4.18;;
76576;SDS011;65441;44.748;37.600;2023-02-23T12:33:23;13.15;;;4.57;;
76576;SDS011;65441;44.748;37.600;2023-02-23T12:36:05;10.27;;;4.63;;
76576;SDS011;65441;44.748;37.600;2023-02-23T12:38:49;14.43;;;4.30;;
76576;SDS011;65441;44.748;37.600;2023-02-23T12:41:25;12.43;;;5.45;;
76576;SDS011;65441;44.748;37.600;2023-02-23T12:44:07;16.55;;;5.80;;
76576;SDS011;65441;44.748;37.600;2023-02-23T12:46:45;13.68;;;3.97;;
76576;SDS011;65441;44.748;37.600;2023-02-23T12:49:25;12.25;;;3.90;;
76576;SDS011;65441;44.748;37.600;2023-02-23T12:51:59;11.77;;;4.25;;
76576;SDS011;65441;44.748;37.600;2023-02-23T12:54:34;11.35;;;4.10;;
76576;SDS011;65441;44.748;37.600;2023-02-23T12:57:09;13.32;;;5.20;;
76576;SDS011;65441;44.748;37.600;2023-02-23T12:59:48;9.73;;;3.95;;
76576;SDS011;65441;44.748;37.600;2023-02-23T13:02:46;8.93;;;2.83;;
76576;SDS011;65441;44.748;37.600;2023-02-23T13:05:22;10.25;;;3.67;;
76576;SDS011;65441;44.748;37.600;2023-02-23T13:08:06;9.63;;;3.90;;
76576;SDS011;65441;44.748;37.600;2023-02-23T13:10:49;12.35;;;4.15;;
76576;SDS011;65441;44.748;37.600;2023-02-23T13:13:26;12.57;;;3.70;;
76576;SDS011;65441;44.748;37.600;2023-02-23T13:16:04;11.05;;;4.00;;
76576;SDS011;65441;44.748;37.600;2023-02-23T13:18:40;13.68;;;5.93;;
76576;SDS011;65441;44.748;37.600;2023-02-23T13:21:16;14.02;;;5.43;;
76576;SDS011;65441;44.748;37.600;2023-02-23T13:23:55;11.15;;;3.67;;
76576;SDS011;65441;44.748;37.600;2023-02-23T13:26:34;10.85;;;3.55;;
76576;SDS011;65441;44.748;37.600;2023-02-23T13:29:07;11.93;;;4.35;;
76576;SDS011;65441;44.748;37.600;2023-02-23T13:31:46;12.60;;;4.07;;
76576;SDS011;65441;44.748;37.600;2023-02-23T13:34:18;11.52;;;4.40;;
76576;SDS011;65441;44.748;37.600;2023-02-23T13:36:53;12.50;;;4.05;;
76576;SDS011;65441;44.748;37.600;2023-02-23T13:42:30;10.57;;;3.75;;
76576;SDS011;65441;44.748;37.600;2023-02-23T13:48:15;13.05;;;3.80;;
76576;SDS011;65441;44.748;37.600;2023-02-23T13:50:58;10.65;;;3.33;;
76576;SDS011;65441;44.748;37.600;2023-02-23T13:53:38;11.40;;;3.80;;
76576;SDS011;65441;44.748;37.600;2023-02-23T13:56:15;9.18;;;3.25;;
76576;SDS011;65441;44.748;37.600;2023-02-23T13:58:46;10.35;;;3.38;;
76576;SDS011;65441;44.748;37.600;2023-02-23T14:01:28;11.20;;;4.03;;
76576;SDS011;65441;44.748;37.600;2023-02-23T14:04:04;10.30;;;4.03;;
76576;SDS011;65441;44.748;37.600;2023-02-23T14:06:38;9.23;;;3.63;;
76576;SDS011;65441;44.748;37.600;2023-02-23T14:09:22;9.88;;;3.17;;
76576;SDS011;65441;44.748;37.600;2023-02-23T14:12:11;11.25;;;4.28;;
76576;SDS011;65441;44.748;37.600;2023-02-23T14:14:47;10.75;;;3.30;;
76576;SDS011;65441;44.748;37.600;2023-02-23T14:20:45;14.93;;;5.18;;
76576;SDS011;65441;44.748;37.600;2023-02-23T14:26:36;10.80;;;3.42;;
76576;SDS011;65441;44.748;37.600;2023-02-23T14:32:01;11.25;;;3.13;;
76576;SDS011;65441;44.748;37.600;2023-02-23T14:34:57;8.93;;;3.20;;
76576;SDS011;65441;44.748;37.600;2023-02-23T14:37:32;11.43;;;4.43;;
76576;SDS011;65441;44.748;37.600;2023-02-23T14:40:11;11.40;;;3.90;;
76576;SDS011;65441;44.748;37.600;2023-02-23T14:42:51;10.23;;;3.85;;
76576;SDS011;65441;44.748;37.600;2023-02-23T14:45:27;11.13;;;3.45;;
76576;SDS011;65441;44.748;37.600;2023-02-23T14:48:00;8.75;;;3.53;;
76576;SDS011;65441;44.748;37.600;2023-02-23T14:50:34;13.65;;;4.55;;
76576;SDS011;65441;44.748;37.600;2023-02-23T14:53:12;7.95;;;3.28;;
76576;SDS011;65441;44.748;37.600;2023-02-23T14:55:49;8.95;;;3.42;;
76576;SDS011;65441;44.748;37.600;2023-02-23T14:58:25;9.38;;;3.63;;
76576;SDS011;65441;44.748;37.600;2023-02-23T15:01:01;10.98;;;3.55;;
76576;SDS011;65441;44.748;37.600;2023-02-23T15:03:36;12.48;;;4.00;;
76576;SDS011;65441;44.748;37.600;2023-02-23T15:06:11;8.50;;;3.08;;
76576;SDS011;65441;44.748;37.600;2023-02-23T15:08:44;21.70;;;3.70;;
76576;SDS011;65441;44.748;37.600;2023-02-23T15:11:20;10.48;;;3.85;;
76576;SDS011;65441;44.748;37.600;2023-02-23T15:13:57;14.30;;;3.50;;
76576;SDS011;65441;44.748;37.600;2023-02-23T15:16:32;10.00;;;3.63;;
76576;SDS011;65441;44.748;37.600;2023-02-23T15:19:09;12.98;;;3.78;;
76576;SDS011;65441;44.748;37.600;2023-02-23T15:21:53;10.88;;;3.83;;
76576;SDS011;65441;44.748;37.600;2023-02-23T15:24:31;9.82;;;3.78;;
76576;SDS011;65441;44.748;37.600;2023-02-23T15:27:18;10.20;;;3.83;;
76576;SDS011;65441;44.748;37.600;2023-02-23T15:30:18;10.63;;;3.17;;
76576;SDS011;65441;44.748;37.600;2023-02-23T15:33:03;10.95;;;3.38;;
76576;SDS011;65441;44.748;37.600;2023-02-23T15:35:45;14.27;;;4.20;;
76576;SDS011;65441;44.748;37.600;2023-02-23T15:38:23;15.38;;;3.88;;
76576;SDS011;65441;44.748;37.600;2023-02-23T15:41:01;13.15;;;3.53;;
76576;SDS011;65441;44.748;37.600;2023-02-23T15:43:43;9.43;;;3.58;;
76576;SDS011;65441;44.748;37.600;2023-02-23T15:46:20;9.15;;;3.80;;
76576;SDS011;65441;44.748;37.600;2023-02-23T15:48:59;10.95;;;3.90;;
76576;SDS011;65441;44.748;37.600;2023-02-23T15:51:35;10.75;;;3.90;;
76576;SDS011;65441;44.748;37.600;2023-02-23T15:54:17;11.85;;;3.53;;
76576;SDS011;65441;44.748;37.600;2023-02-23T15:56:56;8.88;;;3.30;;
76576;SDS011;65441;44.748;37.600;2023-02-23T15:59:37;12.98;;;3.97;;
76576;SDS011;65441;44.748;37.600;2023-02-23T16:02:13;11.57;;;3.72;;
76576;SDS011;65441;44.748;37.600;2023-02-23T16:07:46;14.23;;;3.90;;
76576;SDS011;65441;44.748;37.600;2023-02-23T16:10:40;8.52;;;2.97;;
76576;SDS011;65441;44.748;37.600;2023-02-23T16:13:18;9.85;;;3.38;;
76576;SDS011;65441;44.748;37.600;2023-02-23T16:15:53;10.10;;;3.72;;